sensor_id;sensor_type;location;lat;lon;timestamp;P1;durP1;ratioP1;P2;durP2;ratioP2
47715;SDS011;33476;50.984;3.538;2023-08-30T00:01:11;3.60;;;2.20;;
47715;SDS011;33476;50.984;3.538;2023-08-30T00:03:36;3.95;;;2.28;;
47715;SDS011;33476;50.984;3.538;2023-08-30T00:06:05;3.28;;;1.92;;
47715;SDS011;33476;50.984;3.538;2023-08-30T00:08:31;3.83;;;2.25;;
47715;SDS011;33476;50.984;3.538;2023-08-30T00:11:00;5.95;;;2.22;;
47715;SDS011;33476;50.984;3.538;2023-08-30T00:13:28;6.00;;;2.30;;
47715;SDS011;33476;50.984;3.538;2023-08-30T00:15:54;4.13;;;2.38;;
47715;SDS011;33476;50.984;3.538;2023-08-30T00:18:20;5.10;;;2.38;;
47715;SDS011;33476;50.984;3.538;2023-08-30T00:20:46;4.75;;;2.33;;
47715;SDS011;33476;50.984;3.538;2023-08-30T00:23:11;4.03;;;2.08;;
47715;SDS011;33476;50.984;3.538;2023-08-30T00:25:36;5.55;;;2.83;;
47715;SDS011;33476;50.984;3.538;2023-08-30T00:28:02;5.03;;;2.28;;
47715;SDS011;33476;50.984;3.538;2023-08-30T00:30:27;5.53;;;2.50;;
47715;SDS011;33476;50.984;3.538;2023-08-30T00:32:53;3.47;;;2.03;;
47715;SDS011;33476;50.984;3.538;2023-08-30T00:35:18;4.47;;;1.95;;
47715;SDS011;33476;50.984;3.538;2023-08-30T00:37:43;4.18;;;1.95;;
47715;SDS011;33476;50.984;3.538;2023-08-30T00:40:09;3.42;;;1.90;;
47715;SDS011;33476;50.984;3.538;2023-08-30T00:42:34;4.93;;;2.35;;
47715;SDS011;33476;50.984;3.538;2023-08-30T00:45:00;3.97;;;2.45;;
47715;SDS011;33476;50.984;3.538;2023-08-30T00:47:25;4.75;;;2.15;;
47715;SDS011;33476;50.984;3.538;2023-08-30T00:49:51;3.30;;;2.10;;
47715;SDS011;33476;50.984;3.538;2023-08-30T00:52:16;4.57;;;2.35;;
47715;SDS011;33476;50.984;3.538;2023-08-30T00:54:42;5.20;;;2.17;;
47715;SDS011;33476;50.984;3.538;2023-08-30T00:57:08;5.28;;;2.90;;
47715;SDS011;33476;50.984;3.538;2023-08-30T00:59:34;5.88;;;2.10;;
47715;SDS011;33476;50.984;3.538;2023-08-30T01:02:00;5.03;;;2.28;;
47715;SDS011;33476;50.984;3.538;2023-08-30T01:04:27;4.63;;;2.17;;
47715;SDS011;33476;50.984;3.538;2023-08-30T01:06:52;8.57;;;2.10;;
47715;SDS011;33476;50.984;3.538;2023-08-30T01:09:18;3.92;;;2.30;;
47715;SDS011;33476;50.984;3.538;2023-08-30T01:12:04;7.00;;;2.40;;
47715;SDS011;33476;50.984;3.538;2023-08-30T01:17:35;5.47;;;1.88;;
47715;SDS011;33476;50.984;3.538;2023-08-30T01:20:05;4.13;;;2.35;;
47715;SDS011;33476;50.984;3.538;2023-08-30T01:25:20;4.03;;;1.90;;
47715;SDS011;33476;50.984;3.538;2023-08-30T01:27:50;2.50;;;1.67;;
47715;SDS011;33476;50.984;3.538;2023-08-30T01:30:17;4.32;;;2.22;;
47715;SDS011;33476;50.984;3.538;2023-08-30T01:32:45;3.90;;;1.98;;
47715;SDS011;33476;50.984;3.538;2023-08-30T01:35:11;4.28;;;2.25;;
47715;SDS011;33476;50.984;3.538;2023-08-30T01:37:42;8.20;;;2.05;;
47715;SDS011;33476;50.984;3.538;2023-08-30T01:40:09;4.68;;;1.83;;
47715;SDS011;33476;50.984;3.538;2023-08-30T01:42:37;6.18;;;2.30;;
47715;SDS011;33476;50.984;3.538;2023-08-30T01:45:04;3.05;;;1.75;;
47715;SDS011;33476;50.984;3.538;2023-08-30T01:47:33;4.53;;;2.15;;
47715;SDS011;33476;50.984;3.538;2023-08-30T01:50:01;3.15;;;1.80;;
47715;SDS011;33476;50.984;3.538;2023-08-30T01:52:28;5.20;;;1.75;;
47715;SDS011;33476;50.984;3.538;2023-08-30T01:54:54;4.53;;;1.98;;
47715;SDS011;33476;50.984;3.538;2023-08-30T01:57:20;2.92;;;1.92;;
47715;SDS011;33476;50.984;3.538;2023-08-30T01:59:45;2.88;;;1.90;;
47715;SDS011;33476;50.984;3.538;2023-08-30T02:02:11;2.75;;;1.83;;
47715;SDS011;33476;50.984;3.538;2023-08-30T02:04:36;1.88;;;1.70;;
47715;SDS011;33476;50.984;3.538;2023-08-30T02:07:02;3.20;;;1.65;;
47715;SDS011;33476;50.984;3.538;2023-08-30T02:09:34;3.10;;;2.17;;
47715;SDS011;33476;50.984;3.538;2023-08-30T02:12:02;2.83;;;1.80;;
47715;SDS011;33476;50.984;3.538;2023-08-30T02:16:57;4.47;;;2.10;;
47715;SDS011;33476;50.984;3.538;2023-08-30T02:19:23;4.43;;;1.95;;
47715;SDS011;33476;50.984;3.538;2023-08-30T02:21:49;3.88;;;2.08;;
47715;SDS011;33476;50.984;3.538;2023-08-30T02:24:14;3.50;;;2.13;;
47715;SDS011;33476;50.984;3.538;2023-08-30T02:26:40;6.82;;;2.13;;
47715;SDS011;33476;50.984;3.538;2023-08-30T02:29:05;4.63;;;2.00;;
47715;SDS011;33476;50.984;3.538;2023-08-30T02:31:31;3.97;;;1.88;;
47715;SDS011;33476;50.984;3.538;2023-08-30T02:33:56;3.17;;;2.03;;
47715;SDS011;33476;50.984;3.538;2023-08-30T02:36:21;4.85;;;2.42;;
47715;SDS011;33476;50.984;3.538;2023-08-30T02:38:47;7.45;;;2.20;;
47715;SDS011;33476;50.984;3.538;2023-08-30T02:41:12;4.78;;;2.72;;
47715;SDS011;33476;50.984;3.538;2023-08-30T02:43:38;6.35;;;2.67;;
47715;SDS011;33476;50.984;3.538;2023-08-30T02:46:03;6.13;;;2.20;;
47715;SDS011;33476;50.984;3.538;2023-08-30T02:48:30;6.28;;;2.55;;
47715;SDS011;33476;50.984;3.538;2023-08-30T02:50:56;4.95;;;2.50;;
47715;SDS011;33476;50.984;3.538;2023-08-30T02:53:21;5.35;;;2.70;;
47715;SDS011;33476;50.984;3.538;2023-08-30T02:55:47;4.15;;;2.20;;
47715;SDS011;33476;50.984;3.538;2023-08-30T02:58:13;7.03;;;2.45;;
47715;SDS011;33476;50.984;3.538;2023-08-30T03:00:38;5.60;;;2.60;;
47715;SDS011;33476;50.984;3.538;2023-08-30T03:03:04;3.45;;;2.70;;
47715;SDS011;33476;50.984;3.538;2023-08-30T03:05:29;9.05;;;2.67;;
47715;SDS011;33476;50.984;3.538;2023-08-30T03:07:54;4.80;;;2.33;;
47715;SDS011;33476;50.984;3.538;2023-08-30T03:10:20;7.50;;;2.60;;
47715;SDS011;33476;50.984;3.538;2023-08-30T03:12:45;4.50;;;1.90;;
47715;SDS011;33476;50.984;3.538;2023-08-30T03:15:10;3.60;;;1.77;;
47715;SDS011;33476;50.984;3.538;2023-08-30T03:17:36;1.88;;;1.50;;
47715;SDS011;33476;50.984;3.538;2023-08-30T03:20:02;4.18;;;1.30;;
47715;SDS011;33476;50.984;3.538;2023-08-30T03:22:28;2.13;;;1.20;;
47715;SDS011;33476;50.984;3.538;2023-08-30T03:24:55;1.85;;;1.27;;
47715;SDS011;33476;50.984;3.538;2023-08-30T03:27:20;6.60;;;1.40;;
47715;SDS011;33476;50.984;3.538;2023-08-30T03:29:46;6.70;;;1.70;;
47715;SDS011;33476;50.984;3.538;2023-08-30T03:32:14;3.28;;;1.50;;
47715;SDS011;33476;50.984;3.538;2023-08-30T03:34:44;2.60;;;1.15;;
47715;SDS011;33476;50.984;3.538;2023-08-30T03:37:15;4.30;;;1.30;;
47715;SDS011;33476;50.984;3.538;2023-08-30T03:39:41;3.15;;;1.27;;
47715;SDS011;33476;50.984;3.538;2023-08-30T03:42:07;2.35;;;1.40;;
47715;SDS011;33476;50.984;3.538;2023-08-30T03:44:32;1.98;;;1.23;;
47715;SDS011;33476;50.984;3.538;2023-08-30T03:46:58;6.53;;;1.40;;
47715;SDS011;33476;50.984;3.538;2023-08-30T03:49:23;3.35;;;1.40;;
47715;SDS011;33476;50.984;3.538;2023-08-30T03:51:49;2.95;;;1.30;;
47715;SDS011;33476;50.984;3.538;2023-08-30T03:54:14;3.33;;;1.70;;
47715;SDS011;33476;50.984;3.538;2023-08-30T03:56:44;4.20;;;1.50;;
47715;SDS011;33476;50.984;3.538;2023-08-30T03:59:10;3.63;;;1.80;;
47715;SDS011;33476;50.984;3.538;2023-08-30T04:01:36;2.33;;;1.70;;
47715;SDS011;33476;50.984;3.538;2023-08-30T04:04:02;2.05;;;1.48;;
47715;SDS011;33476;50.984;3.538;2023-08-30T04:06:28;4.20;;;1.85;;
47715;SDS011;33476;50.984;3.538;2023-08-30T04:08:53;3.80;;;1.45;;
47715;SDS011;33476;50.984;3.538;2023-08-30T04:11:19;4.40;;;1.80;;
47715;SDS011;33476;50.984;3.538;2023-08-30T04:13:44;4.43;;;1.75;;
47715;SDS011;33476;50.984;3.538;2023-08-30T04:16:10;2.92;;;2.05;;
47715;SDS011;33476;50.984;3.538;2023-08-30T04:18:35;5.22;;;1.95;;
47715;SDS011;33476;50.984;3.538;2023-08-30T04:21:01;3.72;;;2.40;;
47715;SDS011;33476;50.984;3.538;2023-08-30T04:23:27;3.50;;;2.67;;
47715;SDS011;33476;50.984;3.538;2023-08-30T04:25:53;3.95;;;2.85;;
47715;SDS011;33476;50.984;3.538;2023-08-30T04:28:19;5.88;;;2.65;;
47715;SDS011;33476;50.984;3.538;2023-08-30T04:30:44;6.18;;;2.90;;
47715;SDS011;33476;50.984;3.538;2023-08-30T04:33:09;5.78;;;3.20;;
47715;SDS011;33476;50.984;3.538;2023-08-30T04:35:35;4.63;;;2.10;;
47715;SDS011;33476;50.984;3.538;2023-08-30T04:38:01;4.40;;;2.50;;
47715;SDS011;33476;50.984;3.538;2023-08-30T04:40:28;3.83;;;2.33;;
47715;SDS011;33476;50.984;3.538;2023-08-30T04:42:55;5.40;;;2.70;;
47715;SDS011;33476;50.984;3.538;2023-08-30T04:45:21;3.72;;;2.17;;
47715;SDS011;33476;50.984;3.538;2023-08-30T04:47:46;4.15;;;1.98;;
47715;SDS011;33476;50.984;3.538;2023-08-30T04:50:12;3.25;;;2.75;;
47715;SDS011;33476;50.984;3.538;2023-08-30T04:52:38;7.38;;;3.03;;
47715;SDS011;33476;50.984;3.538;2023-08-30T04:55:04;3.63;;;2.33;;
47715;SDS011;33476;50.984;3.538;2023-08-30T04:57:29;2.78;;;2.33;;
47715;SDS011;33476;50.984;3.538;2023-08-30T04:59:55;3.20;;;2.28;;
47715;SDS011;33476;50.984;3.538;2023-08-30T05:02:21;4.75;;;2.88;;
47715;SDS011;33476;50.984;3.538;2023-08-30T05:04:46;3.05;;;2.03;;
47715;SDS011;33476;50.984;3.538;2023-08-30T05:07:11;6.00;;;3.00;;
47715;SDS011;33476;50.984;3.538;2023-08-30T05:09:38;6.32;;;2.47;;
47715;SDS011;33476;50.984;3.538;2023-08-30T05:12:05;4.43;;;2.13;;
47715;SDS011;33476;50.984;3.538;2023-08-30T05:14:31;5.32;;;2.42;;
47715;SDS011;33476;50.984;3.538;2023-08-30T05:16:56;4.18;;;2.30;;
47715;SDS011;33476;50.984;3.538;2023-08-30T05:19:22;5.22;;;2.22;;
47715;SDS011;33476;50.984;3.538;2023-08-30T05:21:47;4.60;;;2.22;;
47715;SDS011;33476;50.984;3.538;2023-08-30T05:24:16;3.83;;;2.47;;
47715;SDS011;33476;50.984;3.538;2023-08-30T05:26:41;3.30;;;2.40;;
47715;SDS011;33476;50.984;3.538;2023-08-30T05:29:07;3.67;;;2.65;;
47715;SDS011;33476;50.984;3.538;2023-08-30T05:31:32;6.65;;;2.60;;
47715;SDS011;33476;50.984;3.538;2023-08-30T05:33:58;4.35;;;2.42;;
47715;SDS011;33476;50.984;3.538;2023-08-30T05:36:23;4.25;;;2.20;;
47715;SDS011;33476;50.984;3.538;2023-08-30T05:38:48;2.80;;;2.47;;
47715;SDS011;33476;50.984;3.538;2023-08-30T05:41:14;2.80;;;2.45;;
47715;SDS011;33476;50.984;3.538;2023-08-30T05:43:39;4.93;;;2.42;;
47715;SDS011;33476;50.984;3.538;2023-08-30T05:46:04;4.88;;;2.65;;
47715;SDS011;33476;50.984;3.538;2023-08-30T05:48:30;3.03;;;2.47;;
47715;SDS011;33476;50.984;3.538;2023-08-30T05:50:55;2.78;;;2.05;;
47715;SDS011;33476;50.984;3.538;2023-08-30T05:53:21;6.07;;;2.80;;
47715;SDS011;33476;50.984;3.538;2023-08-30T05:55:47;2.75;;;2.50;;
47715;SDS011;33476;50.984;3.538;2023-08-30T05:58:12;3.50;;;2.35;;
47715;SDS011;33476;50.984;3.538;2023-08-30T06:00:40;6.63;;;3.03;;
47715;SDS011;33476;50.984;3.538;2023-08-30T06:03:05;3.80;;;2.55;;
47715;SDS011;33476;50.984;3.538;2023-08-30T06:05:30;7.00;;;3.03;;
47715;SDS011;33476;50.984;3.538;2023-08-30T06:07:56;3.45;;;2.45;;
47715;SDS011;33476;50.984;3.538;2023-08-30T06:10:22;4.93;;;2.65;;
47715;SDS011;33476;50.984;3.538;2023-08-30T06:12:48;5.70;;;2.50;;
47715;SDS011;33476;50.984;3.538;2023-08-30T06:15:13;6.65;;;2.60;;
47715;SDS011;33476;50.984;3.538;2023-08-30T06:17:39;2.85;;;2.33;;
47715;SDS011;33476;50.984;3.538;2023-08-30T06:20:04;5.80;;;2.65;;
47715;SDS011;33476;50.984;3.538;2023-08-30T06:22:30;2.90;;;2.55;;
47715;SDS011;33476;50.984;3.538;2023-08-30T06:24:55;4.30;;;2.30;;
47715;SDS011;33476;50.984;3.538;2023-08-30T06:27:21;5.10;;;2.90;;
47715;SDS011;33476;50.984;3.538;2023-08-30T06:29:46;4.45;;;1.98;;
47715;SDS011;33476;50.984;3.538;2023-08-30T06:32:11;7.65;;;2.50;;
47715;SDS011;33476;50.984;3.538;2023-08-30T06:34:37;4.65;;;2.45;;
47715;SDS011;33476;50.984;3.538;2023-08-30T06:37:02;3.58;;;2.30;;
47715;SDS011;33476;50.984;3.538;2023-08-30T06:39:34;4.07;;;1.98;;
47715;SDS011;33476;50.984;3.538;2023-08-30T06:42:01;3.90;;;2.10;;
47715;SDS011;33476;50.984;3.538;2023-08-30T06:44:27;2.42;;;2.15;;
47715;SDS011;33476;50.984;3.538;2023-08-30T06:46:53;2.95;;;2.15;;
47715;SDS011;33476;50.984;3.538;2023-08-30T06:49:19;2.50;;;1.88;;
47715;SDS011;33476;50.984;3.538;2023-08-30T06:51:44;2.47;;;1.63;;
47715;SDS011;33476;50.984;3.538;2023-08-30T06:54:10;3.55;;;2.20;;
47715;SDS011;33476;50.984;3.538;2023-08-30T06:56:35;3.05;;;2.13;;
47715;SDS011;33476;50.984;3.538;2023-08-30T06:59:00;3.30;;;1.90;;
47715;SDS011;33476;50.984;3.538;2023-08-30T07:01:26;2.53;;;2.25;;
47715;SDS011;33476;50.984;3.538;2023-08-30T07:03:51;22.85;;;2.58;;
47715;SDS011;33476;50.984;3.538;2023-08-30T07:06:17;4.57;;;2.53;;
47715;SDS011;33476;50.984;3.538;2023-08-30T07:08:43;3.10;;;2.03;;
47715;SDS011;33476;50.984;3.538;2023-08-30T07:11:08;3.75;;;2.33;;
47715;SDS011;33476;50.984;3.538;2023-08-30T07:13:34;2.90;;;2.60;;
47715;SDS011;33476;50.984;3.538;2023-08-30T07:15:59;3.28;;;2.97;;
47715;SDS011;33476;50.984;3.538;2023-08-30T07:18:25;5.63;;;2.95;;
47715;SDS011;33476;50.984;3.538;2023-08-30T07:20:50;4.25;;;3.03;;
47715;SDS011;33476;50.984;3.538;2023-08-30T07:23:15;6.63;;;3.53;;
47715;SDS011;33476;50.984;3.538;2023-08-30T07:25:41;5.85;;;3.35;;
47715;SDS011;33476;50.984;3.538;2023-08-30T07:28:06;4.80;;;3.28;;
47715;SDS011;33476;50.984;3.538;2023-08-30T07:30:31;4.03;;;3.55;;
47715;SDS011;33476;50.984;3.538;2023-08-30T07:32:57;5.63;;;3.80;;
47715;SDS011;33476;50.984;3.538;2023-08-30T07:35:23;8.02;;;4.35;;
47715;SDS011;33476;50.984;3.538;2023-08-30T07:37:48;4.63;;;4.20;;
47715;SDS011;33476;50.984;3.538;2023-08-30T07:40:13;5.75;;;4.30;;
47715;SDS011;33476;50.984;3.538;2023-08-30T07:42:39;4.25;;;3.80;;
47715;SDS011;33476;50.984;3.538;2023-08-30T07:45:04;4.15;;;3.50;;
47715;SDS011;33476;50.984;3.538;2023-08-30T07:47:30;4.55;;;3.55;;
47715;SDS011;33476;50.984;3.538;2023-08-30T07:49:56;4.07;;;3.67;;
47715;SDS011;33476;50.984;3.538;2023-08-30T07:52:21;5.43;;;3.88;;
47715;SDS011;33476;50.984;3.538;2023-08-30T07:54:46;4.10;;;3.70;;
47715;SDS011;33476;50.984;3.538;2023-08-30T07:57:12;5.45;;;4.20;;
47715;SDS011;33476;50.984;3.538;2023-08-30T07:59:37;5.43;;;3.97;;
47715;SDS011;33476;50.984;3.538;2023-08-30T08:02:03;5.18;;;3.85;;
47715;SDS011;33476;50.984;3.538;2023-08-30T08:04:31;7.07;;;3.63;;
47715;SDS011;33476;50.984;3.538;2023-08-30T08:06:57;5.75;;;3.53;;
47715;SDS011;33476;50.984;3.538;2023-08-30T08:09:22;3.67;;;2.63;;
47715;SDS011;33476;50.984;3.538;2023-08-30T08:11:48;5.25;;;3.50;;
47715;SDS011;33476;50.984;3.538;2023-08-30T08:14:14;3.63;;;3.10;;
47715;SDS011;33476;50.984;3.538;2023-08-30T08:16:40;4.20;;;2.70;;
47715;SDS011;33476;50.984;3.538;2023-08-30T08:19:05;4.20;;;2.00;;
47715;SDS011;33476;50.984;3.538;2023-08-30T08:21:32;4.13;;;1.98;;
47715;SDS011;33476;50.984;3.538;2023-08-30T08:23:58;5.95;;;1.48;;
47715;SDS011;33476;50.984;3.538;2023-08-30T08:26:23;4.72;;;1.70;;
47715;SDS011;33476;50.984;3.538;2023-08-30T08:28:49;3.80;;;1.73;;
47715;SDS011;33476;50.984;3.538;2023-08-30T08:31:14;3.42;;;2.03;;
47715;SDS011;33476;50.984;3.538;2023-08-30T08:33:39;4.97;;;1.85;;
47715;SDS011;33476;50.984;3.538;2023-08-30T08:36:05;5.25;;;2.13;;
47715;SDS011;33476;50.984;3.538;2023-08-30T08:38:30;8.43;;;2.47;;
47715;SDS011;33476;50.984;3.538;2023-08-30T08:41:02;4.72;;;1.88;;
47715;SDS011;33476;50.984;3.538;2023-08-30T08:43:32;3.67;;;1.52;;
47715;SDS011;33476;50.984;3.538;2023-08-30T08:46:01;7.25;;;1.70;;
47715;SDS011;33476;50.984;3.538;2023-08-30T08:48:31;4.05;;;1.45;;
47715;SDS011;33476;50.984;3.538;2023-08-30T08:51:03;7.18;;;1.42;;
47715;SDS011;33476;50.984;3.538;2023-08-30T08:53:28;3.10;;;1.48;;
47715;SDS011;33476;50.984;3.538;2023-08-30T08:55:54;3.50;;;1.10;;
47715;SDS011;33476;50.984;3.538;2023-08-30T08:58:21;5.13;;;1.00;;
47715;SDS011;33476;50.984;3.538;2023-08-30T09:00:47;4.75;;;1.17;;
47715;SDS011;33476;50.984;3.538;2023-08-30T09:03:12;4.45;;;0.90;;
47715;SDS011;33476;50.984;3.538;2023-08-30T09:05:38;2.47;;;0.80;;
47715;SDS011;33476;50.984;3.538;2023-08-30T09:08:05;3.22;;;0.85;;
47715;SDS011;33476;50.984;3.538;2023-08-30T09:10:31;5.00;;;1.17;;
47715;SDS011;33476;50.984;3.538;2023-08-30T09:12:59;4.40;;;0.50;;
47715;SDS011;33476;50.984;3.538;2023-08-30T09:15:34;5.50;;;0.80;;
47715;SDS011;33476;50.984;3.538;2023-08-30T09:18:03;2.97;;;0.80;;
47715;SDS011;33476;50.984;3.538;2023-08-30T09:20:28;2.92;;;0.75;;
47715;SDS011;33476;50.984;3.538;2023-08-30T09:22:54;5.88;;;0.60;;
47715;SDS011;33476;50.984;3.538;2023-08-30T09:25:23;6.47;;;0.75;;
47715;SDS011;33476;50.984;3.538;2023-08-30T09:27:58;5.35;;;0.68;;
47715;SDS011;33476;50.984;3.538;2023-08-30T09:30:24;6.28;;;0.77;;
47715;SDS011;33476;50.984;3.538;2023-08-30T09:32:50;5.28;;;0.50;;
47715;SDS011;33476;50.984;3.538;2023-08-30T09:35:16;7.90;;;0.80;;
47715;SDS011;33476;50.984;3.538;2023-08-30T09:37:44;7.18;;;0.75;;
47715;SDS011;33476;50.984;3.538;2023-08-30T09:40:09;4.20;;;0.50;;
47715;SDS011;33476;50.984;3.538;2023-08-30T09:42:35;5.70;;;0.60;;
47715;SDS011;33476;50.984;3.538;2023-08-30T09:45:16;4.95;;;0.75;;
47715;SDS011;33476;50.984;3.538;2023-08-30T09:47:51;7.25;;;1.08;;
47715;SDS011;33476;50.984;3.538;2023-08-30T09:50:17;8.10;;;0.70;;
47715;SDS011;33476;50.984;3.538;2023-08-30T09:52:43;5.75;;;0.60;;
47715;SDS011;33476;50.984;3.538;2023-08-30T09:55:11;7.07;;;0.65;;
47715;SDS011;33476;50.984;3.538;2023-08-30T09:57:36;4.40;;;0.47;;
47715;SDS011;33476;50.984;3.538;2023-08-30T10:00:02;4.40;;;0.63;;
47715;SDS011;33476;50.984;3.538;2023-08-30T10:02:29;7.35;;;0.65;;
47715;SDS011;33476;50.984;3.538;2023-08-30T10:04:57;9.40;;;0.70;;
47715;SDS011;33476;50.984;3.538;2023-08-30T10:07:23;8.07;;;0.57;;
47715;SDS011;33476;50.984;3.538;2023-08-30T10:09:50;6.68;;;0.80;;
47715;SDS011;33476;50.984;3.538;2023-08-30T10:12:19;4.03;;;0.90;;
47715;SDS011;33476;50.984;3.538;2023-08-30T10:14:45;6.35;;;0.88;;
47715;SDS011;33476;50.984;3.538;2023-08-30T10:17:10;6.20;;;0.75;;
47715;SDS011;33476;50.984;3.538;2023-08-30T10:19:37;5.80;;;0.60;;
47715;SDS011;33476;50.984;3.538;2023-08-30T10:22:04;4.15;;;0.50;;
47715;SDS011;33476;50.984;3.538;2023-08-30T10:24:40;3.95;;;0.50;;
47715;SDS011;33476;50.984;3.538;2023-08-30T10:27:09;4.43;;;0.50;;
47715;SDS011;33476;50.984;3.538;2023-08-30T10:29:37;5.97;;;0.60;;
47715;SDS011;33476;50.984;3.538;2023-08-30T10:32:04;7.40;;;0.50;;
47715;SDS011;33476;50.984;3.538;2023-08-30T10:34:34;3.15;;;0.50;;
47715;SDS011;33476;50.984;3.538;2023-08-30T10:37:01;9.75;;;0.82;;
47715;SDS011;33476;50.984;3.538;2023-08-30T10:39:34;4.95;;;0.73;;
47715;SDS011;33476;50.984;3.538;2023-08-30T10:44:46;7.20;;;0.75;;
47715;SDS011;33476;50.984;3.538;2023-08-30T10:47:18;4.30;;;0.80;;
47715;SDS011;33476;50.984;3.538;2023-08-30T10:49:56;4.97;;;0.52;;
47715;SDS011;33476;50.984;3.538;2023-08-30T10:52:24;4.53;;;0.47;;
47715;SDS011;33476;50.984;3.538;2023-08-30T10:54:49;8.43;;;1.10;;
47715;SDS011;33476;50.984;3.538;2023-08-30T10:57:18;7.18;;;0.63;;
47715;SDS011;33476;50.984;3.538;2023-08-30T11:00:30;2.63;;;0.30;;
47715;SDS011;33476;50.984;3.538;2023-08-30T11:02:34;3.75;;;0.30;;
47715;SDS011;33476;50.984;3.538;2023-08-30T11:05:01;3.42;;;0.30;;
47715;SDS011;33476;50.984;3.538;2023-08-30T11:07:28;5.43;;;0.50;;
47715;SDS011;33476;50.984;3.538;2023-08-30T11:09:54;7.20;;;0.70;;
47715;SDS011;33476;50.984;3.538;2023-08-30T11:12:19;5.10;;;0.50;;
47715;SDS011;33476;50.984;3.538;2023-08-30T11:14:48;6.97;;;0.50;;
47715;SDS011;33476;50.984;3.538;2023-08-30T11:17:17;2.22;;;0.30;;
47715;SDS011;33476;50.984;3.538;2023-08-30T11:19:44;4.28;;;0.30;;
47715;SDS011;33476;50.984;3.538;2023-08-30T11:22:10;3.00;;;0.60;;
47715;SDS011;33476;50.984;3.538;2023-08-30T11:24:37;2.88;;;0.20;;
47715;SDS011;33476;50.984;3.538;2023-08-30T11:27:03;2.88;;;0.40;;
47715;SDS011;33476;50.984;3.538;2023-08-30T11:29:28;3.05;;;0.38;;
47715;SDS011;33476;50.984;3.538;2023-08-30T11:31:54;6.13;;;0.52;;
47715;SDS011;33476;50.984;3.538;2023-08-30T11:34:20;6.53;;;0.52;;
47715;SDS011;33476;50.984;3.538;2023-08-30T11:36:49;3.80;;;0.30;;
47715;SDS011;33476;50.984;3.538;2023-08-30T11:39:18;2.92;;;0.40;;
47715;SDS011;33476;50.984;3.538;2023-08-30T11:41:44;3.63;;;0.47;;
47715;SDS011;33476;50.984;3.538;2023-08-30T11:44:09;3.38;;;0.40;;
47715;SDS011;33476;50.984;3.538;2023-08-30T11:46:35;5.72;;;0.30;;
47715;SDS011;33476;50.984;3.538;2023-08-30T11:49:00;5.82;;;0.50;;
47715;SDS011;33476;50.984;3.538;2023-08-30T11:51:27;5.13;;;0.47;;
47715;SDS011;33476;50.984;3.538;2023-08-30T11:53:54;3.70;;;0.40;;
47715;SDS011;33476;50.984;3.538;2023-08-30T11:56:20;4.15;;;0.63;;
47715;SDS011;33476;50.984;3.538;2023-08-30T11:58:46;3.08;;;0.35;;
47715;SDS011;33476;50.984;3.538;2023-08-30T12:01:12;2.67;;;0.30;;
47715;SDS011;33476;50.984;3.538;2023-08-30T12:03:38;3.35;;;0.22;;
47715;SDS011;33476;50.984;3.538;2023-08-30T12:06:08;3.40;;;0.30;;
47715;SDS011;33476;50.984;3.538;2023-08-30T12:08:35;2.35;;;0.30;;
47715;SDS011;33476;50.984;3.538;2023-08-30T12:11:00;3.33;;;0.30;;
47715;SDS011;33476;50.984;3.538;2023-08-30T12:13:26;2.92;;;0.38;;
47715;SDS011;33476;50.984;3.538;2023-08-30T12:15:57;2.78;;;0.30;;
47715;SDS011;33476;50.984;3.538;2023-08-30T12:18:24;2.55;;;0.30;;
47715;SDS011;33476;50.984;3.538;2023-08-30T12:21:02;3.58;;;0.30;;
47715;SDS011;33476;50.984;3.538;2023-08-30T12:23:29;2.65;;;0.40;;
47715;SDS011;33476;50.984;3.538;2023-08-30T12:26:06;4.15;;;0.45;;
47715;SDS011;33476;50.984;3.538;2023-08-30T12:28:33;4.10;;;0.40;;
47715;SDS011;33476;50.984;3.538;2023-08-30T12:31:00;2.97;;;0.25;;
47715;SDS011;33476;50.984;3.538;2023-08-30T12:33:26;3.08;;;0.20;;
47715;SDS011;33476;50.984;3.538;2023-08-30T12:35:52;4.13;;;0.45;;
47715;SDS011;33476;50.984;3.538;2023-08-30T12:38:18;2.90;;;0.20;;
47715;SDS011;33476;50.984;3.538;2023-08-30T12:40:47;4.85;;;0.30;;
47715;SDS011;33476;50.984;3.538;2023-08-30T12:43:14;1.73;;;0.30;;
47715;SDS011;33476;50.984;3.538;2023-08-30T12:45:40;3.17;;;0.40;;
47715;SDS011;33476;50.984;3.538;2023-08-30T12:48:07;5.38;;;0.30;;
47715;SDS011;33476;50.984;3.538;2023-08-30T12:50:34;2.17;;;0.20;;
47715;SDS011;33476;50.984;3.538;2023-08-30T12:53:03;4.07;;;0.30;;
47715;SDS011;33476;50.984;3.538;2023-08-30T12:55:30;1.90;;;0.10;;
47715;SDS011;33476;50.984;3.538;2023-08-30T12:57:55;4.82;;;0.57;;
47715;SDS011;33476;50.984;3.538;2023-08-30T13:00:21;3.17;;;0.40;;
47715;SDS011;33476;50.984;3.538;2023-08-30T13:02:47;2.58;;;0.17;;
47715;SDS011;33476;50.984;3.538;2023-08-30T13:05:13;6.65;;;0.40;;
47715;SDS011;33476;50.984;3.538;2023-08-30T13:07:38;3.53;;;0.15;;
47715;SDS011;33476;50.984;3.538;2023-08-30T13:10:04;2.00;;;0.20;;
47715;SDS011;33476;50.984;3.538;2023-08-30T13:12:33;4.00;;;0.40;;
47715;SDS011;33476;50.984;3.538;2023-08-30T13:14:59;2.55;;;0.30;;
47715;SDS011;33476;50.984;3.538;2023-08-30T13:17:24;2.83;;;0.30;;
47715;SDS011;33476;50.984;3.538;2023-08-30T13:19:49;2.53;;;0.30;;
47715;SDS011;33476;50.984;3.538;2023-08-30T13:22:16;2.80;;;0.30;;
47715;SDS011;33476;50.984;3.538;2023-08-30T13:24:41;2.40;;;0.38;;
47715;SDS011;33476;50.984;3.538;2023-08-30T13:27:07;2.47;;;0.30;;
47715;SDS011;33476;50.984;3.538;2023-08-30T13:29:32;2.78;;;0.38;;
47715;SDS011;33476;50.984;3.538;2023-08-30T13:31:57;5.53;;;0.30;;
47715;SDS011;33476;50.984;3.538;2023-08-30T13:34:23;3.80;;;0.20;;
47715;SDS011;33476;50.984;3.538;2023-08-30T13:36:48;1.50;;;0.10;;
47715;SDS011;33476;50.984;3.538;2023-08-30T13:39:14;5.55;;;0.40;;
47715;SDS011;33476;50.984;3.538;2023-08-30T13:41:40;2.28;;;0.22;;
47715;SDS011;33476;50.984;3.538;2023-08-30T13:44:05;2.17;;;0.13;;
47715;SDS011;33476;50.984;3.538;2023-08-30T13:46:31;1.88;;;0.20;;
47715;SDS011;33476;50.984;3.538;2023-08-30T13:48:57;2.53;;;0.13;;
47715;SDS011;33476;50.984;3.538;2023-08-30T13:51:22;3.85;;;0.20;;
47715;SDS011;33476;50.984;3.538;2023-08-30T13:53:49;1.92;;;0.10;;
47715;SDS011;33476;50.984;3.538;2023-08-30T13:56:15;2.80;;;0.20;;
47715;SDS011;33476;50.984;3.538;2023-08-30T13:58:40;2.25;;;0.20;;
47715;SDS011;33476;50.984;3.538;2023-08-30T14:01:06;5.82;;;0.30;;
47715;SDS011;33476;50.984;3.538;2023-08-30T14:03:32;1.98;;;0.30;;
47715;SDS011;33476;50.984;3.538;2023-08-30T14:05:57;1.35;;;0.10;;
47715;SDS011;33476;50.984;3.538;2023-08-30T14:08:23;1.73;;;0.10;;
47715;SDS011;33476;50.984;3.538;2023-08-30T14:10:48;1.80;;;0.30;;
47715;SDS011;33476;50.984;3.538;2023-08-30T14:13:14;2.00;;;0.13;;
47715;SDS011;33476;50.984;3.538;2023-08-30T14:15:40;4.43;;;0.40;;
47715;SDS011;33476;50.984;3.538;2023-08-30T14:18:07;3.45;;;0.38;;
47715;SDS011;33476;50.984;3.538;2023-08-30T14:20:32;3.38;;;0.20;;
47715;SDS011;33476;50.984;3.538;2023-08-30T14:22:58;4.43;;;0.10;;
47715;SDS011;33476;50.984;3.538;2023-08-30T14:25:23;2.08;;;0.20;;
47715;SDS011;33476;50.984;3.538;2023-08-30T14:27:49;2.97;;;0.25;;
47715;SDS011;33476;50.984;3.538;2023-08-30T14:30:14;2.35;;;0.20;;
47715;SDS011;33476;50.984;3.538;2023-08-30T14:32:40;2.08;;;0.30;;
47715;SDS011;33476;50.984;3.538;2023-08-30T14:35:05;1.27;;;0.20;;
47715;SDS011;33476;50.984;3.538;2023-08-30T14:37:31;1.75;;;0.20;;
47715;SDS011;33476;50.984;3.538;2023-08-30T14:39:56;2.88;;;0.30;;
47715;SDS011;33476;50.984;3.538;2023-08-30T14:42:22;2.28;;;0.20;;
47715;SDS011;33476;50.984;3.538;2023-08-30T14:44:50;1.35;;;0.20;;
47715;SDS011;33476;50.984;3.538;2023-08-30T14:47:16;2.03;;;0.20;;
47715;SDS011;33476;50.984;3.538;2023-08-30T14:49:43;2.63;;;0.30;;
47715;SDS011;33476;50.984;3.538;2023-08-30T14:52:10;1.77;;;0.20;;
47715;SDS011;33476;50.984;3.538;2023-08-30T14:54:35;2.67;;;0.22;;